Terminal Aerodrome Forecast
Issued by NWS

Home | Current Version | Previous Version | Text Only | Print | Product List | Glossary On
Versions: 1 2 3 4 5 6 7 8 9 10 11 12 13 14 15
000
FTUS43 KLSX 250500
TAFSUS
TAF
KSUS 250520Z 2506/2606 22005KT P6SM FEW040 SCT250
     FM250900 VRB04KT 5SM BR FEW030 SCT250
      TEMPO 2511/2513 2SM BR
     FM251500 30006KT P6SM SKC
     FM260000 VRB03KT P6SM SKC=

USA.gov is the U.S. government's official web portal to all federal, state and local government web resources and services.